Time;durP1;ratioP1;P1;durP2;ratioP2;P2;SDS_P1;SDS_P2;PMS_P1;PMS_P2;Temp;Humidity;BMP_temperature;BMP_pressure;BME280_temperature;BME280_humidity;BME280_pressure;Samples;Min_cycle;Max_cycle;Signal;HPM_P1;HPM_P2
2023/09/03 00:02:17;;;;;;;;;4.00;4.00;;;;;24.86;59.12;101780.16;4994333;27;45865;-67
2023/09/03 00:04:43;;;;;;;;;5.00;5.00;;;;;24.82;59.51;101785.72;4985513;27;45473;-67
2023/09/03 00:07:08;;;;;;;;;2.00;2.00;;;;;24.79;59.07;101780.50;4974449;28;45502;-65
2023/09/03 00:09:34;;;;;;;;;7.00;4.00;;;;;24.71;59.25;101768.28;4979114;27;45791;-64
2023/09/03 00:12:01;;;;;;;;;4.75;4.00;;;;;24.81;59.29;101787.53;4994642;27;45494;-65
2023/09/03 00:14:27;;;;;;;;;5.00;4.25;;;;;24.71;59.30;101770.09;4993554;27;45386;-64
2023/09/03 00:16:53;;;;;;;;;5.00;4.00;;;;;24.82;59.04;101789.28;4994395;27;45427;-66
2023/09/03 00:19:19;;;;;;;;;5.50;5.00;;;;;24.78;58.96;101784.97;4977926;28;45264;-66
2023/09/03 00:21:44;;;;;;;;;4.00;4.00;;;;;24.82;58.94;101796.44;4985527;27;46051;-65
2023/09/03 00:24:10;;;;;;;;;3.50;3.00;;;;;24.75;59.16;101787.81;4990631;27;45384;-65
2023/09/03 00:26:38;;;;;;;;;2.50;2.50;;;;;24.81;59.07;101787.53;4994737;27;45672;-66
2023/09/03 00:29:04;;;;;;;;;5.00;2.50;;;;;24.82;59.11;101786.59;4995354;27;45495;-66
2023/09/03 00:31:29;;;;;;;;;2.00;2.00;;;;;24.54;59.64;101757.41;4977816;27;45417;-67
2023/09/03 00:33:55;;;;;;;;;2.25;2.25;;;;;24.66;59.95;101797.06;4995340;27;45364;-66
2023/09/03 00:36:23;;;;;;;;;5.00;3.75;;;;;24.50;59.85;101788.75;5037830;27;45546;-67
2023/09/03 00:38:50;;;;;;;;;4.00;4.00;;;;;24.46;60.36;101791.59;4984475;27;45494;-67
2023/09/03 00:41:17;;;;;;;;;3.00;1.50;;;;;24.03;60.17;101711.16;4989622;27;45483;-66
2023/09/03 00:43:43;;;;;;;;;7.50;5.00;;;;;24.33;60.05;101772.47;4994187;27;45418;-65
2023/09/03 00:46:09;;;;;;;;;4.50;3.25;;;;;24.49;59.93;101799.56;4976005;27;45593;-66
2023/09/03 00:48:36;;;;;;;;;2.00;2.00;;;;;24.45;59.88;101792.53;4995530;27;45569;-65
2023/09/03 00:51:05;;;;;;;;;2.75;2.75;;;;;24.40;60.04;101790.03;4996135;27;46547;-66
2023/09/03 00:53:31;;;;;;;;;3.25;3.25;;;;;24.42;60.21;101796.22;4996247;27;45319;-66
2023/09/03 00:55:57;;;;;;;;;2.50;2.50;;;;;24.46;59.64;101795.16;4996328;27;45489;-65
2023/09/03 00:58:24;;;;;;;;;3.25;3.00;;;;;24.54;59.70;101809.13;4997022;27;45583;-66
2023/09/03 01:00:50;;;;;;;;;3.00;2.00;;;;;24.52;59.54;101808.31;4996452;27;46110;-68
2023/09/03 01:03:28;;;;;;;;;6.75;5.50;;;;;24.53;59.86;101814.53;4996100;27;45599;-67
2023/09/03 01:05:56;;;;;;;;;2.50;2.50;;;;;24.49;59.70;101810.28;4997043;27;45484;-66
2023/09/03 01:08:32;;;;;;;;;2.00;2.00;;;;;23.66;60.23;101680.44;4998654;27;45286;-68
2023/09/03 01:11:31;;;;;;;;;4.50;4.25;;;;;24.45;59.72;101814.81;4960584;28;48411;-67
2023/09/03 01:14:18;;;;;;;;;5.00;3.25;;;;;24.47;59.88;101812.13;4982040;27;45283;-67
2023/09/03 01:16:54;;;;;;;;;5.50;3.25;;;;;24.13;60.14;101774.13;4996514;27;45504;-64
2023/09/03 01:19:51;;;;;;;;;5.00;3.25;;;;;24.32;60.56;101811.75;4997052;27;45349;-66
2023/09/03 01:22:38;;;;;;;;;5.50;4.25;;;;;24.23;60.72;101795.19;4997657;27;46175;-65
2023/09/03 01:25:16;;;;;;;;;3.50;3.00;;;;;24.10;61.31;101795.63;4997547;27;45556;-67
2023/09/03 01:28:19;;;;;;;;;4.25;3.00;;;;;24.10;61.13;101792.09;4975260;28;45430;-68
2023/09/03 01:30:46;;;;;;;;;3.00;3.00;;;;;23.96;61.22;101765.84;4992864;27;45531;-70
2023/09/03 01:33:13;;;;;;;;;2.25;2.25;;;;;23.99;61.29;101778.22;4979115;28;46073;-66
2023/09/03 01:35:40;;;;;;;;;2.50;2.50;;;;;23.93;61.60;101765.97;4996672;27;45489;-66
2023/09/03 01:38:18;;;;;;;;;4.75;4.00;;;;;23.97;61.67;101770.28;4996356;27;45369;-68
2023/09/03 01:40:48;;;;;;;;;5.00;4.00;;;;;23.88;61.57;101760.78;4996358;27;45517;-68
2023/09/03 01:43:36;;;;;;;;;3.75;3.50;;;;;23.99;61.68;101767.53;5024735;27;46700;-68
2023/09/03 01:46:40;;;;;;;;;3.25;3.25;;;;;23.92;61.73;101765.09;4994809;27;45700;-66
2023/09/03 01:49:54;;;;;;;;;3.50;3.50;;;;;23.88;61.65;101763.47;4998010;28;45445;-65
2023/09/03 01:52:37;;;;;;;;;3.00;3.00;;;;;23.80;62.01;101761.97;4994642;27;45474;-68
2023/09/03 01:55:10;;;;;;;;;4.00;3.50;;;;;23.79;61.74;101757.56;4997503;27;46363;-65
2023/09/03 01:57:47;;;;;;;;;3.00;3.00;;;;;23.69;62.63;101768.59;4996055;27;45338;-67
2023/09/03 02:00:18;;;;;;;;;4.75;3.00;;;;;23.68;62.45;101757.94;4995162;27;45529;-66
2023/09/03 02:02:47;;;;;;;;;3.50;3.50;;;;;23.68;62.35;101756.16;4993307;27;45389;-65
2023/09/03 02:05:14;;;;;;;;;3.00;3.00;;;;;23.66;62.09;101751.78;4966859;28;47615;-66
2023/09/03 02:07:40;;;;;;;;;3.00;3.00;;;;;23.65;62.46;101750.03;4995361;27;45315;-65
2023/09/03 02:10:33;;;;;;;;;4.00;4.00;;;;;23.67;62.71;101753.53;4978631;28;45359;-66
2023/09/03 02:13:02;;;;;;;;;3.00;3.00;;;;;23.44;62.15;101720.47;4995995;27;45495;-65
2023/09/03 02:15:27;;;;;;;;;4.00;4.00;;;;;23.62;62.47;101761.72;4995199;27;45454;-64
2023/09/03 02:18:06;;;;;;;;;3.00;1.00;;;;;23.55;62.79;101759.31;4995521;27;45576;-66
2023/09/03 02:20:31;;;;;;;;;2.50;2.50;;;;;23.64;62.13;101762.53;4997355;27;45379;-65
2023/09/03 02:23:06;;;;;;;;;3.25;3.00;;;;;23.63;61.87;101755.44;4996009;27;45227;-66
2023/09/03 02:25:49;;;;;;;;;2.50;2.50;;;;;23.70;62.10;101758.75;4995407;27;46075;-65
2023/09/03 02:28:20;;;;;;;;;4.50;2.50;;;;;23.75;61.97;101782.69;4994819;27;46010;-66
2023/09/03 02:30:46;;;;;;;;;5.00;3.00;;;;;23.77;61.94;101773.66;4994979;27;45390;-65
2023/09/03 02:33:20;;;;;;;;;2.00;2.00;;;;;23.81;61.76;101775.31;4991580;27;45576;-67
2023/09/03 02:35:50;;;;;;;;;3.00;2.00;;;;;23.81;61.84;101779.81;4983591;27;45537;-67
2023/09/03 02:38:15;;;;;;;;;3.00;1.75;;;;;23.83;61.70;101792.19;4987289;27;45873;-65
2023/09/03 02:41:03;;;;;;;;;3.00;3.00;;;;;23.87;61.78;101785.81;4995916;27;45532;-67
2023/09/03 02:43:54;;;;;;;;;5.75;3.00;;;;;23.92;61.55;101780.28;4975016;28;45433;-66
2023/09/03 02:46:20;;;;;;;;;3.00;3.00;;;;;23.79;60.98;101752.22;4992548;27;46419;-65
2023/09/03 02:48:46;;;;;;;;;3.75;3.00;;;;;23.92;61.57;101777.59;4994939;27;45501;-65
2023/09/03 02:51:11;;;;;;;;;5.25;3.50;;;;;23.95;61.54;101779.28;4977480;28;45464;-67
2023/09/03 02:53:37;;;;;;;;;2.25;2.25;;;;;23.84;61.52;101755.59;4996406;27;45463;-69
2023/09/03 02:56:03;;;;;;;;;4.00;4.00;;;;;23.99;61.24;101778.22;4994304;27;45472;-68
2023/09/03 02:58:28;;;;;;;;;5.00;3.00;;;;;23.99;61.08;101796.94;4995388;27;45530;-66
2023/09/03 03:00:54;;;;;;;;;3.50;3.00;;;;;23.99;60.94;101792.50;4975644;28;45504;-66
2023/09/03 03:03:19;;;;;;;;;5.00;4.00;;;;;24.00;61.07;101794.22;4990294;27;45411;-68
2023/09/03 03:05:45;;;;;;;;;6.00;6.00;;;;;24.01;61.28;101798.63;4995529;28;45572;-67
2023/09/03 03:08:11;;;;;;;;;5.75;5.75;;;;;24.01;61.34;101803.13;4995087;27;45528;-68
2023/09/03 03:10:36;;;;;;;;;5.25;5.25;;;;;24.02;61.17;101805.75;4994421;27;45798;-68
2023/09/03 03:13:05;;;;;;;;;7.50;6.25;;;;;23.98;61.42;101803.25;4994039;27;45961;-68
2023/09/03 03:15:33;;;;;;;;;6.50;5.75;;;;;23.89;61.67;101801.78;4994689;27;45557;-69
2023/09/03 03:17:59;;;;;;;;;5.50;5.50;;;;;23.81;61.96;101804.75;4977521;28;45205;-64
2023/09/03 03:20:24;;;;;;;;;6.00;6.00;;;;;23.70;61.85;101805.13;4994769;27;45483;-67
2023/09/03 03:22:50;;;;;;;;;4.00;4.00;;;;;23.72;62.14;101807.72;4981385;27;45299;-68
2023/09/03 03:25:16;;;;;;;;;4.25;4.00;;;;;23.72;61.70;101794.34;4994717;27;45849;-66
2023/09/03 03:27:41;;;;;;;;;3.00;3.00;;;;;23.71;61.79;101800.63;4994863;27;45398;-66
2023/09/03 03:30:07;;;;;;;;;4.00;4.00;;;;;23.58;62.10;101807.34;4996271;28;45355;-66
2023/09/03 03:32:33;;;;;;;;;3.00;3.00;;;;;23.63;62.12;101810.72;4995828;27;45344;-66
2023/09/03 03:34:58;;;;;;;;;6.00;3.50;;;;;23.65;61.83;101815.06;4976163;27;46524;-65
2023/09/03 03:37:24;;;;;;;;;4.75;4.00;;;;;23.63;61.73;101813.38;4981472;27;45441;-66
2023/09/03 03:39:50;;;;;;;;;4.50;3.50;;;;;23.61;61.91;101809.88;4995955;27;45506;-66
2023/09/03 03:42:16;;;;;;;;;2.00;2.00;;;;;23.66;62.38;101822.19;4994693;27;45300;-65
2023/09/03 03:44:41;;;;;;;;;5.50;4.00;;;;;23.47;62.51;101800.56;4994877;27;45453;-69
2023/09/03 03:47:07;;;;;;;;;4.00;2.00;;;;;23.58;62.72;101823.38;4995709;27;45352;-68
2023/09/03 03:49:32;;;;;;;;;4.25;3.00;;;;;23.60;62.13;101825.06;4995835;27;45281;-67
2023/09/03 03:51:58;;;;;;;;;2.00;2.00;;;;;23.65;61.72;101839.16;4994819;27;45243;-64
2023/09/03 03:54:23;;;;;;;;;2.75;2.25;;;;;23.68;61.58;101838.16;4976320;27;48019;-65
2023/09/03 03:56:49;;;;;;;;;3.00;2.00;;;;;23.70;61.44;101839.00;5047315;27;45524;-66
2023/09/03 03:59:14;;;;;;;;;3.25;3.25;;;;;23.71;61.52;101838.94;4999154;27;45521;-65
2023/09/03 04:01:40;;;;;;;;;2.00;2.00;;;;;23.68;62.08;101847.09;4973188;28;45425;-65
2023/09/03 04:04:06;;;;;;;;;4.00;2.00;;;;;23.65;61.65;101847.16;4990882;27;45952;-64
2023/09/03 04:06:31;;;;;;;;;3.25;3.00;;;;;23.67;61.69;101860.50;4994316;27;45509;-65
2023/09/03 04:08:57;;;;;;;;;1.75;1.75;;;;;23.63;62.05;101867.78;4975071;28;45403;-65
2023/09/03 04:11:25;;;;;;;;;5.00;4.00;;;;;23.55;61.92;101856.44;4995147;27;45461;-66
2023/09/03 04:13:51;;;;;;;;;2.50;2.00;;;;;23.44;62.33;101853.25;4976054;28;46793;-66
2023/09/03 04:16:19;;;;;;;;;3.00;2.50;;;;;23.40;62.66;101865.00;4994488;27;45318;-65
2023/09/03 04:18:46;;;;;;;;;4.00;2.50;;;;;23.37;62.93;101882.03;4994705;27;45457;-64
2023/09/03 04:21:12;;;;;;;;;3.00;3.00;;;;;23.31;62.65;101874.19;4993616;27;45433;-65
2023/09/03 04:23:38;;;;;;;;;3.50;3.50;;;;;23.29;62.80;101870.69;4992765;27;45824;-65
2023/09/03 04:26:04;;;;;;;;;4.00;4.00;;;;;23.12;63.11;101865.91;4975813;28;45416;-67
2023/09/03 04:28:30;;;;;;;;;4.75;4.00;;;;;23.09;63.40;101863.34;4976258;28;45385;-67
2023/09/03 04:30:59;;;;;;;;;3.00;3.00;;;;;23.04;63.21;101850.13;4976141;28;45465;-65
2023/09/03 04:33:25;;;;;;;;;2.00;2.00;;;;;23.01;63.53;101873.41;4990109;27;46741;-64
2023/09/03 04:35:58;;;;;;;;;2.00;2.00;;;;;23.05;63.63;101875.91;4977835;28;45317;-65
2023/09/03 04:38:25;;;;;;;;;3.50;2.50;;;;;23.03;63.16;101877.75;4988802;27;45375;-66
2023/09/03 04:40:50;;;;;;;;;4.25;3.00;;;;;22.95;63.73;101860.22;4993710;27;45447;-66
2023/09/03 04:43:18;;;;;;;;;3.50;3.50;;;;;22.84;63.80;101868.56;4993265;27;46194;-67
2023/09/03 04:45:48;;;;;;;;;3.00;3.00;;;;;22.87;63.94;101873.78;4994216;27;45527;-67
2023/09/03 04:48:15;;;;;;;;;4.00;2.00;;;;;22.86;64.15;101883.59;4993839;27;45382;-67
2023/09/03 04:50:41;;;;;;;;;3.50;3.00;;;;;22.80;64.21;101873.13;4993446;27;45521;-67
2023/09/03 04:53:07;;;;;;;;;3.00;2.25;;;;;22.87;64.38;101879.13;4993773;27;45499;-67
2023/09/03 04:55:35;;;;;;;;;3.25;2.75;;;;;22.79;64.36;101879.38;4993104;27;45425;-67
2023/09/03 04:58:01;;;;;;;;;4.00;3.00;;;;;22.75;64.28;101876.84;4976443;27;45480;-66
2023/09/03 05:00:30;;;;;;;;;2.50;2.50;;;;;22.75;64.65;101875.03;4995849;27;45393;-67
2023/09/03 05:02:58;;;;;;;;;3.00;3.00;;;;;22.75;64.61;101871.50;4996006;27;46245;-67
2023/09/03 05:05:24;;;;;;;;;3.75;2.50;;;;;22.72;64.74;101866.28;4994899;27;45476;-66
2023/09/03 05:07:50;;;;;;;;;2.25;2.25;;;;;22.73;64.65;101874.25;4993971;27;45331;-65
2023/09/03 05:10:16;;;;;;;;;3.00;3.00;;;;;22.74;64.57;101864.44;4993777;28;45385;-67
2023/09/03 05:12:43;;;;;;;;;3.00;3.00;;;;;22.69;64.69;101864.56;4992965;28;45610;-67
2023/09/03 05:15:10;;;;;;;;;2.75;2.75;;;;;22.73;64.67;101868.91;4993272;28;45451;-68
2023/09/03 05:17:36;;;;;;;;;3.50;3.50;;;;;22.80;64.88;101883.81;4974238;27;45523;-67
2023/09/03 05:20:03;;;;;;;;;4.25;2.50;;;;;22.78;64.58;101871.41;4994329;27;45284;-68
2023/09/03 05:22:28;;;;;;;;;3.50;3.50;;;;;22.72;64.81;101871.63;4992569;27;45401;-67
2023/09/03 05:24:54;;;;;;;;;6.33;6.33;;;;;22.67;64.61;101887.78;4993244;27;45477;-66
2023/09/03 05:27:19;;;;;;;;;4.50;4.00;;;;;22.74;64.47;101878.66;4994303;27;45429;-66
2023/09/03 05:29:45;;;;;;;;;3.00;3.00;;;;;22.84;64.36;101892.59;4975305;28;45586;-68
2023/09/03 05:32:11;;;;;;;;;5.75;5.75;;;;;22.94;64.06;101896.72;4992188;27;45573;-67
2023/09/03 05:34:36;;;;;;;;;4.00;3.25;;;;;22.86;64.12;101894.28;4992991;27;45322;-67
2023/09/03 05:37:03;;;;;;;;;4.00;4.00;;;;;22.79;64.53;101900.75;4982047;27;45404;-66
2023/09/03 05:39:29;;;;;;;;;3.75;3.75;;;;;22.84;64.43;101905.94;4978359;28;45521;-67
2023/09/03 05:41:54;;;;;;;;;3.00;3.00;;;;;22.86;64.31;101898.78;4995432;27;45453;-66
2023/09/03 05:44:20;;;;;;;;;4.00;3.75;;;;;23.00;63.89;101899.25;4995388;27;45461;-66
2023/09/03 05:46:45;;;;;;;;;2.75;2.75;;;;;23.06;63.74;101899.06;4997021;27;45398;-65
2023/09/03 05:49:11;;;;;;;;;3.75;3.00;;;;;23.21;63.03;101911.06;4998913;27;45433;-67
2023/09/03 05:51:37;;;;;;;;;3.00;3.00;;;;;23.29;63.15;101911.66;4997543;27;45842;-67
2023/09/03 05:54:03;;;;;;;;;4.00;3.00;;;;;23.38;62.46;101923.00;4995158;27;45524;-67
2023/09/03 05:56:29;;;;;;;;;3.50;3.50;;;;;23.43;62.49;101919.25;4995192;27;45400;-67
2023/09/03 05:58:54;;;;;;;;;3.00;3.00;;;;;23.52;62.14;101922.53;4994567;27;45507;-65
2023/09/03 06:01:20;;;;;;;;;2.75;2.75;;;;;23.52;62.38;101919.88;4983010;27;45689;-69
2023/09/03 06:03:45;;;;;;;;;3.00;3.00;;;;;23.65;61.74;101927.41;5055372;27;45501;-67
2023/09/03 06:06:11;;;;;;;;;4.50;4.50;;;;;23.67;61.56;101925.56;4996998;27;45330;-69
2023/09/03 06:08:38;;;;;;;;;5.00;4.50;;;;;23.71;61.24;101939.72;4996145;27;45417;-65
2023/09/03 06:11:05;;;;;;;;;3.50;3.00;;;;;23.64;62.04;101936.38;4987569;27;45327;-64
2023/09/03 06:13:34;;;;;;;;;3.75;3.75;;;;;23.71;61.75;101937.91;4984751;27;45409;-64
2023/09/03 06:15:59;;;;;;;;;2.25;1.50;;;;;23.65;61.50;101930.09;4977227;27;45588;-65
2023/09/03 06:18:28;;;;;;;;;3.00;3.00;;;;;23.60;61.37;101907.09;4977819;27;45339;-67
2023/09/03 06:20:54;;;;;;;;;4.50;3.75;;;;;23.84;61.02;101937.53;4984473;27;45521;-68
2023/09/03 06:23:20;;;;;;;;;4.00;3.00;;;;;23.95;61.21;101962.09;4998010;27;45453;-66
2023/09/03 06:25:46;;;;;;;;;4.75;4.25;;;;;23.87;61.22;101966.84;4986938;27;45414;-68
2023/09/03 06:28:13;;;;;;;;;4.00;4.00;;;;;23.84;61.56;101966.94;5003370;27;45500;-68
2023/09/03 06:30:39;;;;;;;;;3.75;3.75;;;;;23.89;60.96;101964.97;4983956;27;46421;-65
2023/09/03 06:33:05;;;;;;;;;3.25;3.25;;;;;23.93;60.84;101950.59;4977609;27;45457;-65
2023/09/03 06:35:31;;;;;;;;;3.25;3.25;;;;;23.96;60.78;101966.53;4976117;28;46690;-69
2023/09/03 06:37:59;;;;;;;;;3.00;3.00;;;;;23.95;60.91;101946.06;4988031;27;45298;-65
2023/09/03 06:40:26;;;;;;;;;4.25;3.00;;;;;24.09;60.61;101967.00;4976394;27;46307;-66
2023/09/03 06:42:52;;;;;;;;;4.00;4.00;;;;;24.22;59.71;101970.97;4975465;28;45474;-69
2023/09/03 06:45:18;;;;;;;;;3.75;3.75;;;;;24.39;59.29;101975.69;4974323;27;45772;-65
2023/09/03 06:47:47;;;;;;;;;5.00;4.00;;;;;24.31;59.62;101951.91;4979368;27;45434;-67
2023/09/03 06:50:45;;;;;;;;;5.00;3.25;;;;;24.55;59.43;101984.97;4971052;27;46727;-65
2023/09/03 06:53:11;;;;;;;;;5.25;4.00;;;;;24.58;58.75;101981.28;4971330;27;45435;-64
2023/09/03 06:55:37;;;;;;;;;3.25;3.00;;;;;24.63;58.68;101978.44;4980434;27;45479;-68
2023/09/03 06:58:03;;;;;;;;;4.75;3.50;;;;;24.56;58.01;101972.47;4975390;27;45842;-69
2023/09/03 07:00:29;;;;;;;;;4.00;3.00;;;;;24.51;58.21;101986.03;4965142;27;46412;-67
2023/09/03 07:02:55;;;;;;;;;5.00;3.00;;;;;24.53;58.36;101986.81;4960378;28;45426;-65
2023/09/03 07:05:29;;;;;;;;;3.25;3.00;;;;;24.61;58.67;101985.69;4979367;27;45691;-66
2023/09/03 07:07:55;;;;;;;;;5.25;3.25;;;;;24.76;58.28;102002.03;4975344;28;45299;-65
2023/09/03 07:10:21;;;;;;;;;5.00;4.00;;;;;24.79;57.41;101979.63;4978013;27;45572;-66
2023/09/03 07:12:56;;;;;;;;;8.25;5.00;;;;;24.80;57.46;101992.09;4980276;27;45625;-66
2023/09/03 07:15:21;;;;;;;;;3.00;3.00;;;;;24.58;57.43;101942.94;4965112;28;45425;-67
2023/09/03 07:17:48;;;;;;;;;6.25;6.00;;;;;24.84;56.46;101966.06;4976975;27;45316;-65
2023/09/03 07:20:24;;;;;;;;;4.00;3.25;;;;;25.03;56.73;101995.69;4975078;28;45470;-65
2023/09/03 07:22:50;;;;;;;;;5.00;5.00;;;;;24.89;56.30;101973.00;4976262;27;45788;-64
2023/09/03 07:25:16;;;;;;;;;6.00;6.00;;;;;25.02;56.53;102002.88;4978550;27;45741;-65
2023/09/03 07:27:42;;;;;;;;;4.00;3.25;;;;;25.03;56.14;102003.75;4981700;27;45367;-63
2023/09/03 07:30:08;;;;;;;;;4.00;4.00;;;;;24.98;56.88;102002.09;4980341;28;45661;-64
2023/09/03 07:32:37;;;;;;;;;4.00;4.00;;;;;25.10;56.65;102006.13;4978157;27;45423;-66
2023/09/03 07:35:06;;;;;;;;;1.00;1.00;;;;;25.10;56.18;102000.75;4989774;27;45611;-66
2023/09/03 07:37:32;;;;;;;;;4.50;3.50;;;;;25.13;56.50;101999.78;5061352;28;45493;-66
2023/09/03 07:40:03;;;;;;;;;5.25;3.50;;;;;25.04;55.79;101981.38;4992549;27;45655;-65
2023/09/03 07:42:29;;;;;;;;;4.25;4.25;;;;;25.08;55.85;101988.34;5020111;27;45296;-68
2023/09/03 07:44:55;;;;;;;;;5.50;3.50;;;;;25.11;56.22;102001.66;5029469;27;45380;-69
2023/09/03 07:47:21;;;;;;;;;4.50;4.25;;;;;25.10;56.46;101994.53;5028716;27;45766;-67
2023/09/03 07:49:46;;;;;;;;;5.00;4.25;;;;;25.05;56.88;101978.63;4993756;27;45322;-65
2023/09/03 07:52:12;;;;;;;;;3.75;3.50;;;;;25.16;56.05;101972.84;5035702;27;45291;-65
2023/09/03 07:54:39;;;;;;;;;3.75;3.75;;;;;25.30;55.98;101972.34;4991416;27;45487;-67
2023/09/03 07:57:04;;;;;;;;;4.50;4.00;;;;;25.29;55.83;101941.09;5034019;27;45438;-67
2023/09/03 07:59:30;;;;;;;;;4.00;4.00;;;;;25.34;55.65;101945.34;4991346;27;45355;-69
2023/09/03 08:01:58;;;;;;;;;3.50;3.50;;;;;25.55;55.50;101977.56;4990111;27;45727;-67
2023/09/03 08:04:24;;;;;;;;;4.50;4.25;;;;;25.58;55.30;101974.78;4991622;27;45531;-70
2023/09/03 08:06:50;;;;;;;;;4.50;4.00;;;;;25.69;55.41;101969.81;4993517;27;45346;-67
2023/09/03 08:09:15;;;;;;;;;3.50;3.00;;;;;25.68;55.15;101969.91;5035787;27;45952;-66
2023/09/03 08:11:41;;;;;;;;;3.50;3.50;;;;;25.76;55.39;101982.03;4992579;27;45384;-66
2023/09/03 08:14:07;;;;;;;;;3.50;3.50;;;;;25.70;54.84;101978.72;4987244;27;45744;-65
2023/09/03 08:16:36;;;;;;;;;3.50;3.00;;;;;25.71;54.99;101978.66;4991739;27;45294;-70
2023/09/03 08:19:01;;;;;;;;;4.50;3.25;;;;;25.73;55.12;101968.75;4990569;27;45643;-68
2023/09/03 08:21:27;;;;;;;;;4.75;4.00;;;;;25.66;54.74;101955.66;4994038;27;45584;-69
2023/09/03 08:23:53;;;;;;;;;3.50;3.50;;;;;25.86;55.12;101977.19;4993174;27;45481;-67
2023/09/03 08:26:19;;;;;;;;;5.75;4.75;;;;;25.94;55.00;101958.94;4975015;27;45849;-64
2023/09/03 08:28:44;;;;;;;;;5.50;4.75;;;;;26.14;54.67;101967.94;4992978;27;45384;-64
2023/09/03 08:31:10;;;;;;;;;7.50;4.50;;;;;26.18;54.20;101964.19;4991609;27;45483;-67
2023/09/03 08:33:37;;;;;;;;;4.00;4.00;;;;;26.15;54.29;101959.84;4990824;27;45476;-68
2023/09/03 08:36:06;;;;;;;;;4.75;4.75;;;;;26.21;54.04;101967.59;4988086;27;45296;-69
2023/09/03 08:38:32;;;;;;;;;5.75;5.75;;;;;26.14;53.93;101957.19;5002116;27;48115;-66
2023/09/03 08:40:58;;;;;;;;;5.25;4.75;;;;;26.18;53.84;101962.38;4990421;27;45907;-66
2023/09/03 08:43:24;;;;;;;;;5.00;5.00;;;;;26.25;54.28;101962.13;4992298;27;45466;-66
2023/09/03 08:45:57;;;;;;;;;4.00;4.00;;;;;26.28;53.88;101962.84;4991542;27;45439;-67
2023/09/03 08:48:23;;;;;;;;;5.00;5.00;;;;;26.35;54.18;101969.69;4983983;27;47222;-67
2023/09/03 08:50:49;;;;;;;;;4.75;4.75;;;;;26.10;54.29;101972.59;4992425;27;45442;-68
2023/09/03 08:53:15;;;;;;;;;3.75;3.75;;;;;25.88;54.52;101935.03;5029878;27;45696;-66
2023/09/03 08:55:42;;;;;;;;;5.75;5.75;;;;;26.20;54.71;101965.00;4992969;27;45485;-64
2023/09/03 08:58:08;;;;;;;;;3.00;3.00;;;;;26.31;54.53;101961.81;4974144;27;46817;-66
2023/09/03 09:00:34;;;;;;;;;5.75;5.00;;;;;26.39;54.32;101955.19;4992593;27;45578;-67
2023/09/03 09:03:02;;;;;;;;;3.75;3.75;;;;;26.56;54.17;101965.19;4971863;27;45370;-65
2023/09/03 09:05:29;;;;;;;;;4.75;4.75;;;;;26.67;54.08;101967.34;4993073;27;45437;-69
2023/09/03 09:07:56;;;;;;;;;5.00;4.25;;;;;26.65;53.71;101947.78;4990982;27;46062;-67
2023/09/03 09:10:28;;;;;;;;;7.20;5.60;;;;;26.85;53.41;101963.81;4991382;27;45833;-66
2023/09/03 09:13:04;;;;;;;;;6.75;6.00;;;;;26.89;53.42;101971.75;4994124;27;45699;-67
2023/09/03 09:15:44;;;;;;;;;4.75;4.50;;;;;26.43;53.48;101891.41;4993931;27;45538;-67
2023/09/03 09:18:10;;;;;;;;;5.75;5.75;;;;;26.96;52.92;101987.53;4991806;27;46299;-66
2023/09/03 09:20:40;;;;;;;;;6.60;4.60;;;;;27.01;53.08;101984.63;5058069;27;45554;-66
2023/09/03 09:23:09;;;;;;;;;7.00;6.75;;;;;26.83;53.00;101954.94;4991780;27;45483;-67
2023/09/03 09:25:36;;;;;;;;;5.00;5.00;;;;;26.98;53.95;101969.50;4993305;27;45645;-67
2023/09/03 09:28:14;;;;;;;;;5.00;5.00;;;;;27.07;53.26;101973.56;4976770;27;47602;-66
2023/09/03 09:30:57;;;;;;;;;6.25;6.25;;;;;27.35;52.49;101977.63;4975638;27;45426;-67
2023/09/03 09:33:23;;;;;;;;;4.00;4.00;;;;;27.38;52.28;101975.66;4993016;27;45481;-64
2023/09/03 09:35:49;;;;;;;;;6.00;5.00;;;;;27.49;51.93;101969.75;4994191;27;45602;-66
2023/09/03 09:38:16;;;;;;;;;6.00;4.75;;;;;27.24;51.84;101929.72;4993519;27;46806;-68
2023/09/03 09:40:48;;;;;;;;;7.00;7.00;;;;;27.53;51.30;101970.50;4975524;27;45380;-65
2023/09/03 09:43:14;;;;;;;;;6.00;6.00;;;;;27.60;51.40;101969.25;4990378;27;45421;-66
2023/09/03 09:45:57;;;;;;;;;5.00;5.00;;;;;27.55;51.09;101961.41;4974898;27;45553;-65
2023/09/03 09:48:23;;;;;;;;;7.00;5.80;;;;;27.90;50.81;102001.81;5044604;27;46510;-63
2023/09/03 09:50:52;;;;;;;;;6.75;5.00;;;;;27.91;50.29;101996.38;5016520;27;45307;-67
2023/09/03 09:53:27;;;;;;;;;6.00;4.80;;;;;27.69;50.76;101964.25;4991533;27;45423;-68
2023/09/03 09:56:01;;;;;;;;;7.25;7.25;;;;;27.96;51.62;101982.66;4986752;27;45853;-66
2023/09/03 09:58:40;;;;;;;;;8.00;8.00;;;;;28.09;50.54;101985.59;4987079;27;46433;-68
2023/09/03 10:01:08;;;;;;;;;8.00;6.60;;;;;28.37;50.20;102003.88;4976826;27;46373;-69
2023/09/03 10:03:49;;;;;;;;;6.00;6.00;;;;;28.46;50.51;101989.94;4993527;27;45751;-66
2023/09/03 10:06:17;;;;;;;;;6.50;6.50;;;;;28.58;50.39;101993.81;4992382;27;45536;-68
2023/09/03 10:08:45;;;;;;;;;7.00;7.00;;;;;28.60;49.86;101991.03;4993592;27;46038;-68
2023/09/03 10:11:11;;;;;;;;;6.80;6.00;;;;;28.58;49.82;101976.75;5037738;28;45725;-69
2023/09/03 10:13:41;;;;;;;;;6.20;6.20;;;;;28.81;49.39;101981.78;4975393;28;45766;-68
2023/09/03 10:16:08;;;;;;;;;5.00;5.00;;;;;28.74;49.03;101956.09;5006551;27;45928;-69
2023/09/03 10:18:54;;;;;;;;;7.80;7.80;;;;;29.02;49.00;101985.09;4996464;28;45753;-66
2023/09/03 10:21:23;;;;;;;;;9.60;7.40;;;;;29.00;48.96;101969.94;4987185;27;45553;-65
2023/09/03 10:23:50;;;;;;;;;5.00;5.00;;;;;29.19;48.06;101981.47;4991362;27;45871;-69
2023/09/03 10:26:30;;;;;;;;;4.25;4.25;;;;;29.31;48.77;101977.22;4994615;27;45591;-66
2023/09/03 10:29:04;;;;;;;;;5.80;5.80;;;;;29.37;47.80;101974.16;4991104;27;46131;-66
2023/09/03 10:31:30;;;;;;;;;6.40;5.20;;;;;29.44;47.79;101980.06;5022882;28;46743;-68
2023/09/03 10:33:56;;;;;;;;;6.80;6.80;;;;;29.50;47.08;101969.78;4981587;27;45917;-69
2023/09/03 10:36:22;;;;;;;;;5.25;5.25;;;;;29.64;47.05;101978.88;4990049;27;45482;-68
2023/09/03 10:38:48;;;;;;;;;7.75;7.75;;;;;29.75;47.41;101981.88;4996223;27;46236;-66
2023/09/03 10:41:20;;;;;;;;;7.20;6.20;;;;;29.77;46.74;101988.91;5044366;27;45461;-66
2023/09/03 10:43:48;;;;;;;;;6.80;6.40;;;;;29.66;47.09;101975.16;4994493;27;45263;-68
2023/09/03 10:46:14;;;;;;;;;6.20;6.20;;;;;29.94;46.73;101993.28;5047640;27;45544;-67
2023/09/03 10:48:50;;;;;;;;;9.20;7.00;;;;;29.94;46.43;101970.81;4988948;27;46067;-67
2023/09/03 10:51:33;;;;;;;;;8.40;7.00;;;;;30.01;45.39;101983.88;4970517;28;45413;-67
2023/09/03 10:54:18;;;;;;;;;7.40;6.40;;;;;30.16;45.70;101989.28;4974056;27;46593;-65
2023/09/03 10:57:06;;;;;;;;;9.00;7.40;;;;;30.27;45.42;101991.38;4987933;27;45619;-66
2023/09/03 11:00:05;;;;;;;;;6.00;6.00;;;;;30.36;44.55;101989.00;4985119;27;45461;-71
2023/09/03 11:02:33;;;;;;;;;8.20;6.00;;;;;30.47;45.10;101988.34;4982099;27;46443;-66
2023/09/03 11:05:20;;;;;;;;;7.60;5.20;;;;;30.53;44.39;101985.22;4989893;27;45572;-66
2023/09/03 11:07:47;;;;;;;;;6.00;5.00;;;;;30.61;44.36;101979.34;4982560;27;45887;-64
2023/09/03 11:10:36;;;;;;;;;5.80;5.80;;;;;30.71;43.99;101974.25;4998457;27;46909;-67
2023/09/03 11:13:04;;;;;;;;;5.00;5.00;;;;;30.79;44.60;101959.25;4993090;27;45280;-68
2023/09/03 11:15:30;;;;;;;;;5.40;5.20;;;;;30.90;44.39;101960.44;4992316;27;45268;-68
2023/09/03 11:17:57;;;;;;;;;7.25;7.25;;;;;31.09;43.98;101962.81;4993887;27;45441;-71
2023/09/03 11:20:33;;;;;;;;;10.00;6.60;;;;;31.08;41.77;101958.34;4974468;28;47641;-68
2023/09/03 11:23:00;;;;;;;;;8.20;8.00;;;;;31.13;41.65;101958.91;4991881;27;45447;-68
2023/09/03 11:25:36;;;;;;;;;6.40;6.40;;;;;31.25;41.72;101960.81;4994158;27;45513;-67
2023/09/03 11:28:13;;;;;;;;;5.80;5.80;;;;;31.43;41.61;101956.06;5028150;27;45857;-68
2023/09/03 11:30:43;;;;;;;;;9.20;7.20;;;;;31.58;41.26;101957.72;4992433;27;45509;-69
2023/09/03 11:33:28;;;;;;;;;7.20;7.20;;;;;31.63;40.72;101943.84;4990385;27;45411;-70
2023/09/03 11:35:54;;;;;;;;;7.00;7.00;;;;;31.78;41.26;101952.81;4987257;27;45402;-68